Pagrindinis puslapis
METAR-TAF:

METAR-TAF

Oro uostai :

Kaljaris, Italija

platuma: 39-15N, ilguma: 009-04E, Aukštis: 4 m

Dabartinis oras

Ataskaita buvo paskelbta 43 minutes, ne 05:20 UTC
Vėjas 5 kt iš Šiaurės Rytų, svyruoja nuo Vakarų/Šiaurės Vakarų ir Rytų
Temperatūra 12°C
Drėgmė 62%
Slėgis 1015 hPa
Matomumas 10 km arba daugiau
Mažai debesys ne aukštis 1500 ft
Išsisklaidę debesys ne aukštis 6000 ft

METAR: LIEE 010520Z 04005KT 300V100 9999 FEW015 SCT060 12/05 Q1015

Laikas: 08:03 (06:03 UTC)

Prognozė

Ataskaita buvo paskelbta 1 valandą ir 3 minutes, ne 05:00 UTC
Prognozė galioja nuo 01 metu 06 UTC su 02 metu 06 UTC
Vėjas 10 kt iš Pietų/Pietryčių
Matomumas 10 km arba daugiau
Išsisklaidę debesys ne aukštis 3000 ft

TAF: LIEE 010500Z 0106/0206 15010KT 9999 SCT030

Orai ataskaitas ir orų prognozės (METAR, TAF).

turimą stotys yra geltonos ir raudonos taškus žemėlapyje.

Perkelti pele per norėdami pamatyti stoties vardą.

Tada spustelėkite, norėdami matyti oro stebėjimo ir prognozės.

Norėdami pakeisti žemėlapį: spustelėkite ant žalios mygtukų su juodo kryžiaus žemyn,; žalią mygtuką su brūkšneliu, jei norite nutolinti; arba žalių rodyklių gretimoms žemėlapius.


METAR-TAF: